Terminal Aerodrome Forecast
Issued by NWS

Home | Current Version | Previous Version | Text Only | Print | Product List | Glossary On
Versions: 1 2 3 4 5 6 7 8 9 10 11 12 13 14 15 16 17 18 19 20 21 22 23 24
241
FTUS45 KPSR 281736
TAFSDL
TAF
KSDL 281736Z 2818/2918 27012G22KT P6SM FEW070 SCT100 BKN200
     FM282100 29020G30KT P6SM FEW100 BKN250
     FM282300 30028G38KT 6SM BLDU FEW250
      TEMPO 2823/2903 5SM BLDU
     FM290300 32020G30KT P6SM SKC
     FM290700 36010KT P6SM SKC=

USA.gov is the U.S. government's official web portal to all federal, state and local government web resources and services.